sensor_id;sensor_type;location;lat;lon;timestamp;P1;durP1;ratioP1;P2;durP2;ratioP2
29938;SDS011;16799;50.844;5.304;2023-08-01T00:01:34;0.90;;;0.60;;
29938;SDS011;16799;50.844;5.304;2023-08-01T00:03:59;0.60;;;0.60;;
29938;SDS011;16799;50.844;5.304;2023-08-01T00:06:25;0.80;;;0.80;;
29938;SDS011;16799;50.844;5.304;2023-08-01T00:08:51;1.40;;;0.60;;
29938;SDS011;16799;50.844;5.304;2023-08-01T00:11:17;0.83;;;0.83;;
29938;SDS011;16799;50.844;5.304;2023-08-01T00:13:42;1.57;;;1.20;;
29938;SDS011;16799;50.844;5.304;2023-08-01T00:16:08;2.27;;;0.93;;
29938;SDS011;16799;50.844;5.304;2023-08-01T00:18:34;0.67;;;0.63;;
29938;SDS011;16799;50.844;5.304;2023-08-01T00:21:00;2.37;;;0.70;;
29938;SDS011;16799;50.844;5.304;2023-08-01T00:23:26;0.80;;;0.80;;
29938;SDS011;16799;50.844;5.304;2023-08-01T00:25:52;1.00;;;0.90;;
29938;SDS011;16799;50.844;5.304;2023-08-01T00:28:18;1.53;;;0.70;;
29938;SDS011;16799;50.844;5.304;2023-08-01T00:30:44;2.13;;;1.00;;
29938;SDS011;16799;50.844;5.304;2023-08-01T00:33:09;1.63;;;1.53;;
29938;SDS011;16799;50.844;5.304;2023-08-01T00:35:35;1.00;;;0.80;;
29938;SDS011;16799;50.844;5.304;2023-08-01T00:38:01;0.70;;;0.70;;
29938;SDS011;16799;50.844;5.304;2023-08-01T00:40:33;0.73;;;0.73;;
29938;SDS011;16799;50.844;5.304;2023-08-01T00:42:59;1.43;;;1.20;;
29938;SDS011;16799;50.844;5.304;2023-08-01T00:45:26;1.13;;;1.00;;
29938;SDS011;16799;50.844;5.304;2023-08-01T00:47:52;1.27;;;1.17;;
29938;SDS011;16799;50.844;5.304;2023-08-01T00:50:19;2.70;;;1.27;;
29938;SDS011;16799;50.844;5.304;2023-08-01T00:52:46;2.10;;;1.20;;
29938;SDS011;16799;50.844;5.304;2023-08-01T00:55:12;1.30;;;1.00;;
29938;SDS011;16799;50.844;5.304;2023-08-01T00:57:39;3.50;;;1.33;;
29938;SDS011;16799;50.844;5.304;2023-08-01T01:00:05;3.00;;;1.53;;
29938;SDS011;16799;50.844;5.304;2023-08-01T01:02:31;3.47;;;1.67;;
29938;SDS011;16799;50.844;5.304;2023-08-01T01:04:57;1.37;;;1.27;;
29938;SDS011;16799;50.844;5.304;2023-08-01T01:07:23;4.30;;;1.30;;
29938;SDS011;16799;50.844;5.304;2023-08-01T01:09:50;1.47;;;1.37;;
29938;SDS011;16799;50.844;5.304;2023-08-01T01:12:15;1.63;;;1.53;;
29938;SDS011;16799;50.844;5.304;2023-08-01T01:14:41;1.77;;;1.67;;
29938;SDS011;16799;50.844;5.304;2023-08-01T01:17:07;2.27;;;2.07;;
29938;SDS011;16799;50.844;5.304;2023-08-01T01:19:32;1.50;;;1.40;;
29938;SDS011;16799;50.844;5.304;2023-08-01T01:21:58;1.93;;;1.77;;
29938;SDS011;16799;50.844;5.304;2023-08-01T01:24:24;1.87;;;1.77;;
29938;SDS011;16799;50.844;5.304;2023-08-01T01:26:51;3.50;;;1.87;;
29938;SDS011;16799;50.844;5.304;2023-08-01T01:29:18;1.90;;;1.63;;
29938;SDS011;16799;50.844;5.304;2023-08-01T01:31:45;2.40;;;1.57;;
29938;SDS011;16799;50.844;5.304;2023-08-01T01:34:12;2.57;;;2.37;;
29938;SDS011;16799;50.844;5.304;2023-08-01T01:36:38;2.70;;;2.03;;
29938;SDS011;16799;50.844;5.304;2023-08-01T01:39:04;2.07;;;1.60;;
29938;SDS011;16799;50.844;5.304;2023-08-01T01:41:29;2.57;;;2.37;;
29938;SDS011;16799;50.844;5.304;2023-08-01T01:43:55;2.50;;;2.30;;
29938;SDS011;16799;50.844;5.304;2023-08-01T01:46:20;2.70;;;2.00;;
29938;SDS011;16799;50.844;5.304;2023-08-01T01:48:46;2.03;;;1.83;;
29938;SDS011;16799;50.844;5.304;2023-08-01T01:51:12;4.10;;;1.93;;
29938;SDS011;16799;50.844;5.304;2023-08-01T01:53:38;4.43;;;1.57;;
29938;SDS011;16799;50.844;5.304;2023-08-01T01:56:03;3.57;;;2.03;;
29938;SDS011;16799;50.844;5.304;2023-08-01T01:58:29;4.60;;;4.20;;
29938;SDS011;16799;50.844;5.304;2023-08-01T02:00:55;3.90;;;1.87;;
29938;SDS011;16799;50.844;5.304;2023-08-01T02:03:20;3.80;;;2.20;;
29938;SDS011;16799;50.844;5.304;2023-08-01T02:05:46;4.83;;;2.47;;
29938;SDS011;16799;50.844;5.304;2023-08-01T02:08:12;2.30;;;2.07;;
29938;SDS011;16799;50.844;5.304;2023-08-01T02:10:37;10.03;;;3.43;;
29938;SDS011;16799;50.844;5.304;2023-08-01T02:13:03;3.80;;;2.47;;
29938;SDS011;16799;50.844;5.304;2023-08-01T02:15:29;5.70;;;3.40;;
29938;SDS011;16799;50.844;5.304;2023-08-01T02:17:55;11.43;;;3.27;;
29938;SDS011;16799;50.844;5.304;2023-08-01T02:20:21;3.30;;;3.00;;
29938;SDS011;16799;50.844;5.304;2023-08-01T02:22:47;3.70;;;2.57;;
29938;SDS011;16799;50.844;5.304;2023-08-01T02:25:12;9.47;;;3.70;;
29938;SDS011;16799;50.844;5.304;2023-08-01T02:27:38;4.03;;;2.67;;
29938;SDS011;16799;50.844;5.304;2023-08-01T02:30:04;3.90;;;3.40;;
29938;SDS011;16799;50.844;5.304;2023-08-01T02:32:30;4.13;;;3.80;;
29938;SDS011;16799;50.844;5.304;2023-08-01T02:34:56;6.07;;;4.07;;
29938;SDS011;16799;50.844;5.304;2023-08-01T02:37:21;4.20;;;3.90;;
29938;SDS011;16799;50.844;5.304;2023-08-01T02:39:47;8.00;;;4.30;;
29938;SDS011;16799;50.844;5.304;2023-08-01T02:42:13;7.27;;;4.20;;
29938;SDS011;16799;50.844;5.304;2023-08-01T02:44:38;5.87;;;5.37;;
29938;SDS011;16799;50.844;5.304;2023-08-01T02:47:04;5.13;;;4.77;;
29938;SDS011;16799;50.844;5.304;2023-08-01T02:49:31;5.53;;;4.90;;
29938;SDS011;16799;50.844;5.304;2023-08-01T02:51:57;5.63;;;5.13;;
29938;SDS011;16799;50.844;5.304;2023-08-01T02:54:23;5.77;;;5.20;;
29938;SDS011;16799;50.844;5.304;2023-08-01T02:56:49;5.60;;;5.10;;
29938;SDS011;16799;50.844;5.304;2023-08-01T02:59:16;8.17;;;5.57;;
29938;SDS011;16799;50.844;5.304;2023-08-01T03:01:43;4.93;;;4.03;;
29938;SDS011;16799;50.844;5.304;2023-08-01T03:04:09;6.20;;;4.73;;
29938;SDS011;16799;50.844;5.304;2023-08-01T03:06:37;10.47;;;5.60;;
29938;SDS011;16799;50.844;5.304;2023-08-01T03:09:04;6.17;;;5.43;;
29938;SDS011;16799;50.844;5.304;2023-08-01T03:11:33;8.90;;;4.90;;
29938;SDS011;16799;50.844;5.304;2023-08-01T03:14:01;7.17;;;5.17;;
29938;SDS011;16799;50.844;5.304;2023-08-01T03:16:26;8.83;;;4.80;;
29938;SDS011;16799;50.844;5.304;2023-08-01T03:18:52;5.60;;;4.83;;
29938;SDS011;16799;50.844;5.304;2023-08-01T03:21:17;6.23;;;5.10;;
29938;SDS011;16799;50.844;5.304;2023-08-01T03:23:43;6.03;;;5.43;;
29938;SDS011;16799;50.844;5.304;2023-08-01T03:26:09;9.23;;;5.23;;
29938;SDS011;16799;50.844;5.304;2023-08-01T03:28:35;9.07;;;5.40;;
29938;SDS011;16799;50.844;5.304;2023-08-01T03:31:01;15.73;;;5.30;;
29938;SDS011;16799;50.844;5.304;2023-08-01T03:33:27;6.33;;;4.90;;
29938;SDS011;16799;50.844;5.304;2023-08-01T03:35:53;7.10;;;4.40;;
29938;SDS011;16799;50.844;5.304;2023-08-01T03:38:18;7.57;;;4.93;;
29938;SDS011;16799;50.844;5.304;2023-08-01T03:40:44;7.83;;;4.80;;
29938;SDS011;16799;50.844;5.304;2023-08-01T03:43:09;8.80;;;4.40;;
29938;SDS011;16799;50.844;5.304;2023-08-01T03:45:35;5.73;;;5.13;;
29938;SDS011;16799;50.844;5.304;2023-08-01T03:48:01;8.60;;;4.47;;
29938;SDS011;16799;50.844;5.304;2023-08-01T03:50:26;10.13;;;6.50;;
29938;SDS011;16799;50.844;5.304;2023-08-01T03:52:52;12.67;;;6.43;;
29938;SDS011;16799;50.844;5.304;2023-08-01T03:55:18;14.07;;;6.13;;
29938;SDS011;16799;50.844;5.304;2023-08-01T03:57:43;7.00;;;6.40;;
29938;SDS011;16799;50.844;5.304;2023-08-01T04:00:09;13.20;;;7.10;;
29938;SDS011;16799;50.844;5.304;2023-08-01T04:02:41;14.00;;;6.53;;
29938;SDS011;16799;50.844;5.304;2023-08-01T04:05:07;12.20;;;5.13;;
29938;SDS011;16799;50.844;5.304;2023-08-01T04:07:34;12.50;;;6.30;;
29938;SDS011;16799;50.844;5.304;2023-08-01T04:10:01;9.93;;;5.93;;
29938;SDS011;16799;50.844;5.304;2023-08-01T04:12:27;8.93;;;6.17;;
29938;SDS011;16799;50.844;5.304;2023-08-01T04:14:53;8.87;;;4.77;;
29938;SDS011;16799;50.844;5.304;2023-08-01T04:17:18;8.50;;;6.00;;
29938;SDS011;16799;50.844;5.304;2023-08-01T04:19:44;11.97;;;6.30;;
29938;SDS011;16799;50.844;5.304;2023-08-01T04:22:09;15.93;;;6.97;;
29938;SDS011;16799;50.844;5.304;2023-08-01T04:24:35;25.27;;;6.87;;
29938;SDS011;16799;50.844;5.304;2023-08-01T04:27:01;7.47;;;6.20;;
29938;SDS011;16799;50.844;5.304;2023-08-01T04:29:26;11.70;;;6.83;;
29938;SDS011;16799;50.844;5.304;2023-08-01T04:31:52;9.07;;;7.17;;
29938;SDS011;16799;50.844;5.304;2023-08-01T04:34:17;11.93;;;6.40;;
29938;SDS011;16799;50.844;5.304;2023-08-01T04:36:43;11.07;;;6.90;;
29938;SDS011;16799;50.844;5.304;2023-08-01T04:39:09;11.93;;;6.90;;
29938;SDS011;16799;50.844;5.304;2023-08-01T04:41:34;10.00;;;7.73;;
29938;SDS011;16799;50.844;5.304;2023-08-01T04:44:00;8.30;;;6.20;;
29938;SDS011;16799;50.844;5.304;2023-08-01T04:46:25;10.97;;;6.90;;
29938;SDS011;16799;50.844;5.304;2023-08-01T04:48:51;12.30;;;6.90;;
29938;SDS011;16799;50.844;5.304;2023-08-01T04:51:17;17.50;;;6.43;;
29938;SDS011;16799;50.844;5.304;2023-08-01T04:53:42;12.10;;;7.70;;
29938;SDS011;16799;50.844;5.304;2023-08-01T04:56:08;19.47;;;7.93;;
29938;SDS011;16799;50.844;5.304;2023-08-01T04:58:33;10.20;;;8.37;;
29938;SDS011;16799;50.844;5.304;2023-08-01T05:00:59;10.43;;;7.77;;
29938;SDS011;16799;50.844;5.304;2023-08-01T05:03:25;13.23;;;7.43;;
29938;SDS011;16799;50.844;5.304;2023-08-01T05:05:50;17.60;;;7.83;;
29938;SDS011;16799;50.844;5.304;2023-08-01T05:08:16;17.43;;;6.67;;
29938;SDS011;16799;50.844;5.304;2023-08-01T05:10:42;10.70;;;6.67;;
29938;SDS011;16799;50.844;5.304;2023-08-01T05:13:07;9.30;;;6.53;;
29938;SDS011;16799;50.844;5.304;2023-08-01T05:15:33;15.33;;;7.33;;
29938;SDS011;16799;50.844;5.304;2023-08-01T05:17:58;10.90;;;6.40;;
29938;SDS011;16799;50.844;5.304;2023-08-01T05:20:24;10.20;;;7.37;;
29938;SDS011;16799;50.844;5.304;2023-08-01T05:22:55;10.70;;;7.63;;
29938;SDS011;16799;50.844;5.304;2023-08-01T05:25:24;17.17;;;8.30;;
29938;SDS011;16799;50.844;5.304;2023-08-01T05:27:50;11.47;;;7.17;;
29938;SDS011;16799;50.844;5.304;2023-08-01T05:30:15;22.93;;;8.53;;
29938;SDS011;16799;50.844;5.304;2023-08-01T05:32:41;18.93;;;9.30;;
29938;SDS011;16799;50.844;5.304;2023-08-01T05:35:08;15.60;;;9.83;;
29938;SDS011;16799;50.844;5.304;2023-08-01T05:37:34;14.43;;;6.77;;
29938;SDS011;16799;50.844;5.304;2023-08-01T05:40:00;15.37;;;10.27;;
29938;SDS011;16799;50.844;5.304;2023-08-01T05:42:27;18.20;;;10.00;;
29938;SDS011;16799;50.844;5.304;2023-08-01T05:44:53;26.03;;;11.80;;
29938;SDS011;16799;50.844;5.304;2023-08-01T05:47:19;18.83;;;9.10;;
29938;SDS011;16799;50.844;5.304;2023-08-01T05:49:44;22.87;;;11.00;;
29938;SDS011;16799;50.844;5.304;2023-08-01T05:52:10;20.50;;;11.03;;
29938;SDS011;16799;50.844;5.304;2023-08-01T05:54:36;21.17;;;9.97;;
29938;SDS011;16799;50.844;5.304;2023-08-01T05:57:01;32.67;;;10.23;;
29938;SDS011;16799;50.844;5.304;2023-08-01T05:59:27;24.23;;;12.40;;
29938;SDS011;16799;50.844;5.304;2023-08-01T06:01:53;19.10;;;10.93;;
29938;SDS011;16799;50.844;5.304;2023-08-01T06:04:18;17.33;;;10.83;;
29938;SDS011;16799;50.844;5.304;2023-08-01T06:06:44;19.13;;;11.57;;
29938;SDS011;16799;50.844;5.304;2023-08-01T06:09:09;19.03;;;11.43;;
29938;SDS011;16799;50.844;5.304;2023-08-01T06:11:35;17.00;;;11.90;;
29938;SDS011;16799;50.844;5.304;2023-08-01T06:14:01;19.80;;;10.07;;
29938;SDS011;16799;50.844;5.304;2023-08-01T06:16:26;12.40;;;10.03;;
29938;SDS011;16799;50.844;5.304;2023-08-01T06:18:52;10.27;;;8.13;;
29938;SDS011;16799;50.844;5.304;2023-08-01T06:21:18;15.37;;;10.00;;
29938;SDS011;16799;50.844;5.304;2023-08-01T06:23:44;17.73;;;8.10;;
29938;SDS011;16799;50.844;5.304;2023-08-01T06:26:09;42.83;;;10.77;;
29938;SDS011;16799;50.844;5.304;2023-08-01T06:28:35;21.33;;;10.00;;
29938;SDS011;16799;50.844;5.304;2023-08-01T06:31:01;14.43;;;9.47;;
29938;SDS011;16799;50.844;5.304;2023-08-01T06:33:27;17.37;;;8.30;;
29938;SDS011;16799;50.844;5.304;2023-08-01T06:35:52;19.87;;;8.97;;
29938;SDS011;16799;50.844;5.304;2023-08-01T06:38:18;21.80;;;9.23;;
29938;SDS011;16799;50.844;5.304;2023-08-01T06:40:44;16.13;;;9.00;;
29938;SDS011;16799;50.844;5.304;2023-08-01T06:43:09;10.00;;;8.00;;
29938;SDS011;16799;50.844;5.304;2023-08-01T06:45:35;16.83;;;9.50;;
29938;SDS011;16799;50.844;5.304;2023-08-01T06:48:01;13.80;;;9.23;;
29938;SDS011;16799;50.844;5.304;2023-08-01T06:50:26;19.17;;;8.03;;
29938;SDS011;16799;50.844;5.304;2023-08-01T06:52:52;16.30;;;7.30;;
29938;SDS011;16799;50.844;5.304;2023-08-01T06:55:17;15.50;;;8.63;;
29938;SDS011;16799;50.844;5.304;2023-08-01T06:57:43;15.30;;;7.57;;
29938;SDS011;16799;50.844;5.304;2023-08-01T07:00:09;12.33;;;7.37;;
29938;SDS011;16799;50.844;5.304;2023-08-01T07:02:36;13.57;;;8.47;;
29938;SDS011;16799;50.844;5.304;2023-08-01T07:05:01;20.17;;;8.20;;
29938;SDS011;16799;50.844;5.304;2023-08-01T07:07:27;9.27;;;7.83;;
29938;SDS011;16799;50.844;5.304;2023-08-01T07:09:53;12.70;;;8.90;;
29938;SDS011;16799;50.844;5.304;2023-08-01T07:12:18;11.93;;;7.80;;
29938;SDS011;16799;50.844;5.304;2023-08-01T07:14:44;12.97;;;8.67;;
29938;SDS011;16799;50.844;5.304;2023-08-01T07:17:09;14.20;;;6.90;;
29938;SDS011;16799;50.844;5.304;2023-08-01T07:19:35;16.53;;;6.67;;
29938;SDS011;16799;50.844;5.304;2023-08-01T07:22:01;16.87;;;7.20;;
29938;SDS011;16799;50.844;5.304;2023-08-01T07:24:26;15.63;;;7.53;;
29938;SDS011;16799;50.844;5.304;2023-08-01T07:26:52;15.60;;;7.37;;
29938;SDS011;16799;50.844;5.304;2023-08-01T07:29:17;7.83;;;6.80;;
29938;SDS011;16799;50.844;5.304;2023-08-01T07:31:43;15.23;;;6.33;;
29938;SDS011;16799;50.844;5.304;2023-08-01T07:34:09;14.33;;;7.53;;
29938;SDS011;16799;50.844;5.304;2023-08-01T07:36:35;8.83;;;6.23;;
29938;SDS011;16799;50.844;5.304;2023-08-01T07:39:00;11.23;;;6.20;;
29938;SDS011;16799;50.844;5.304;2023-08-01T07:41:26;14.53;;;7.20;;
29938;SDS011;16799;50.844;5.304;2023-08-01T07:43:52;9.63;;;6.60;;
29938;SDS011;16799;50.844;5.304;2023-08-01T07:46:17;9.80;;;6.20;;
29938;SDS011;16799;50.844;5.304;2023-08-01T07:48:43;7.13;;;6.23;;
29938;SDS011;16799;50.844;5.304;2023-08-01T07:51:09;14.20;;;7.77;;
29938;SDS011;16799;50.844;5.304;2023-08-01T07:53:36;13.67;;;6.87;;
29938;SDS011;16799;50.844;5.304;2023-08-01T07:56:02;17.60;;;8.70;;
29938;SDS011;16799;50.844;5.304;2023-08-01T07:58:30;18.80;;;7.77;;
29938;SDS011;16799;50.844;5.304;2023-08-01T08:00:56;11.83;;;8.40;;
29938;SDS011;16799;50.844;5.304;2023-08-01T08:03:22;23.93;;;9.37;;
29938;SDS011;16799;50.844;5.304;2023-08-01T08:05:49;16.77;;;8.27;;
29938;SDS011;16799;50.844;5.304;2023-08-01T08:08:15;13.77;;;8.67;;
29938;SDS011;16799;50.844;5.304;2023-08-01T08:10:40;11.17;;;7.63;;
29938;SDS011;16799;50.844;5.304;2023-08-01T08:13:06;13.80;;;7.67;;
29938;SDS011;16799;50.844;5.304;2023-08-01T08:15:32;18.63;;;8.37;;
29938;SDS011;16799;50.844;5.304;2023-08-01T08:18:00;11.10;;;5.97;;
29938;SDS011;16799;50.844;5.304;2023-08-01T08:20:26;15.63;;;7.40;;
29938;SDS011;16799;50.844;5.304;2023-08-01T08:22:52;22.30;;;7.00;;
29938;SDS011;16799;50.844;5.304;2023-08-01T08:25:17;12.37;;;6.20;;
29938;SDS011;16799;50.844;5.304;2023-08-01T08:27:43;10.93;;;5.60;;
29938;SDS011;16799;50.844;5.304;2023-08-01T08:30:08;9.13;;;7.20;;
29938;SDS011;16799;50.844;5.304;2023-08-01T08:32:35;9.10;;;5.90;;
29938;SDS011;16799;50.844;5.304;2023-08-01T08:35:00;7.50;;;5.87;;
29938;SDS011;16799;50.844;5.304;2023-08-01T08:37:26;10.93;;;6.87;;
29938;SDS011;16799;50.844;5.304;2023-08-01T08:39:52;11.00;;;6.10;;
29938;SDS011;16799;50.844;5.304;2023-08-01T08:42:18;5.13;;;4.17;;
29938;SDS011;16799;50.844;5.304;2023-08-01T08:44:44;16.50;;;5.13;;
29938;SDS011;16799;50.844;5.304;2023-08-01T08:47:14;7.83;;;4.70;;
29938;SDS011;16799;50.844;5.304;2023-08-01T08:49:43;8.83;;;6.17;;
29938;SDS011;16799;50.844;5.304;2023-08-01T08:52:11;11.80;;;5.30;;
29938;SDS011;16799;50.844;5.304;2023-08-01T08:54:37;5.20;;;4.77;;
29938;SDS011;16799;50.844;5.304;2023-08-01T08:57:05;5.93;;;4.90;;
29938;SDS011;16799;50.844;5.304;2023-08-01T08:59:34;12.13;;;6.23;;
29938;SDS011;16799;50.844;5.304;2023-08-01T09:02:01;6.17;;;5.33;;
29938;SDS011;16799;50.844;5.304;2023-08-01T09:04:28;6.80;;;4.50;;
29938;SDS011;16799;50.844;5.304;2023-08-01T09:06:55;10.60;;;5.10;;
29938;SDS011;16799;50.844;5.304;2023-08-01T09:09:26;14.67;;;7.00;;
29938;SDS011;16799;50.844;5.304;2023-08-01T09:11:53;12.07;;;5.70;;
29938;SDS011;16799;50.844;5.304;2023-08-01T09:14:21;9.23;;;4.70;;
29938;SDS011;16799;50.844;5.304;2023-08-01T09:16:47;6.53;;;4.93;;
29938;SDS011;16799;50.844;5.304;2023-08-01T09:19:17;14.67;;;5.33;;
29938;SDS011;16799;50.844;5.304;2023-08-01T09:21:43;19.93;;;3.97;;
29938;SDS011;16799;50.844;5.304;2023-08-01T09:24:16;8.13;;;4.10;;
29938;SDS011;16799;50.844;5.304;2023-08-01T09:26:43;5.80;;;4.43;;
29938;SDS011;16799;50.844;5.304;2023-08-01T09:29:09;6.63;;;4.33;;
29938;SDS011;16799;50.844;5.304;2023-08-01T09:31:36;16.00;;;5.17;;
29938;SDS011;16799;50.844;5.304;2023-08-01T09:34:17;9.53;;;5.10;;
29938;SDS011;16799;50.844;5.304;2023-08-01T09:36:48;10.50;;;4.03;;
29938;SDS011;16799;50.844;5.304;2023-08-01T09:39:18;8.97;;;4.53;;
29938;SDS011;16799;50.844;5.304;2023-08-01T09:41:54;6.00;;;3.80;;
29938;SDS011;16799;50.844;5.304;2023-08-01T09:44:24;19.43;;;3.93;;
29938;SDS011;16799;50.844;5.304;2023-08-01T09:47:02;11.70;;;3.97;;
29938;SDS011;16799;50.844;5.304;2023-08-01T09:49:29;5.73;;;4.30;;
29938;SDS011;16799;50.844;5.304;2023-08-01T09:51:56;7.40;;;3.50;;
29938;SDS011;16799;50.844;5.304;2023-08-01T09:54:22;10.17;;;3.50;;
29938;SDS011;16799;50.844;5.304;2023-08-01T09:56:50;15.53;;;4.37;;
29938;SDS011;16799;50.844;5.304;2023-08-01T09:59:23;7.33;;;3.80;;
29938;SDS011;16799;50.844;5.304;2023-08-01T10:01:51;3.63;;;3.10;;
29938;SDS011;16799;50.844;5.304;2023-08-01T10:04:18;3.70;;;3.13;;
29938;SDS011;16799;50.844;5.304;2023-08-01T10:06:58;8.90;;;3.30;;
29938;SDS011;16799;50.844;5.304;2023-08-01T10:09:27;5.13;;;2.43;;
29938;SDS011;16799;50.844;5.304;2023-08-01T10:11:57;7.20;;;3.50;;
29938;SDS011;16799;50.844;5.304;2023-08-01T10:14:23;2.70;;;2.50;;
29938;SDS011;16799;50.844;5.304;2023-08-01T10:16:50;7.13;;;2.63;;
29938;SDS011;16799;50.844;5.304;2023-08-01T10:19:17;7.47;;;3.60;;
29938;SDS011;16799;50.844;5.304;2023-08-01T10:21:43;4.83;;;1.90;;
29938;SDS011;16799;50.844;5.304;2023-08-01T10:24:09;3.63;;;2.30;;
29938;SDS011;16799;50.844;5.304;2023-08-01T10:26:37;9.50;;;3.80;;
29938;SDS011;16799;50.844;5.304;2023-08-01T10:29:03;5.83;;;2.50;;
29938;SDS011;16799;50.844;5.304;2023-08-01T10:31:28;3.80;;;2.53;;
29938;SDS011;16799;50.844;5.304;2023-08-01T10:34:03;6.67;;;2.80;;
29938;SDS011;16799;50.844;5.304;2023-08-01T10:36:30;6.93;;;2.77;;
29938;SDS011;16799;50.844;5.304;2023-08-01T10:38:58;4.13;;;2.03;;
29938;SDS011;16799;50.844;5.304;2023-08-01T10:41:28;7.23;;;2.50;;
29938;SDS011;16799;50.844;5.304;2023-08-01T10:44:08;3.33;;;3.03;;
29938;SDS011;16799;50.844;5.304;2023-08-01T10:49:41;9.13;;;3.50;;
29938;SDS011;16799;50.844;5.304;2023-08-01T10:52:24;10.77;;;3.80;;
29938;SDS011;16799;50.844;5.304;2023-08-01T10:55:01;11.13;;;4.17;;
29938;SDS011;16799;50.844;5.304;2023-08-01T10:57:29;5.93;;;3.07;;
29938;SDS011;16799;50.844;5.304;2023-08-01T10:59:56;4.63;;;3.20;;
29938;SDS011;16799;50.844;5.304;2023-08-01T11:02:28;5.20;;;2.57;;
29938;SDS011;16799;50.844;5.304;2023-08-01T11:04:58;11.90;;;5.10;;
29938;SDS011;16799;50.844;5.304;2023-08-01T11:07:29;11.27;;;2.70;;
29938;SDS011;16799;50.844;5.304;2023-08-01T11:10:11;8.87;;;2.40;;
29938;SDS011;16799;50.844;5.304;2023-08-01T11:12:40;9.10;;;2.77;;
29938;SDS011;16799;50.844;5.304;2023-08-01T11:15:09;5.20;;;2.90;;
29938;SDS011;16799;50.844;5.304;2023-08-01T11:17:36;3.03;;;2.30;;
29938;SDS011;16799;50.844;5.304;2023-08-01T11:20:06;4.40;;;2.83;;
29938;SDS011;16799;50.844;5.304;2023-08-01T11:22:33;7.33;;;2.77;;
29938;SDS011;16799;50.844;5.304;2023-08-01T11:25:00;6.53;;;2.53;;
29938;SDS011;16799;50.844;5.304;2023-08-01T11:27:26;8.73;;;2.77;;
29938;SDS011;16799;50.844;5.304;2023-08-01T11:29:52;5.40;;;2.30;;
29938;SDS011;16799;50.844;5.304;2023-08-01T11:32:19;4.30;;;3.13;;
29938;SDS011;16799;50.844;5.304;2023-08-01T11:34:45;7.73;;;3.30;;
29938;SDS011;16799;50.844;5.304;2023-08-01T11:37:12;9.90;;;2.97;;
29938;SDS011;16799;50.844;5.304;2023-08-01T11:39:39;5.70;;;3.30;;
29938;SDS011;16799;50.844;5.304;2023-08-01T11:42:05;5.20;;;2.73;;
29938;SDS011;16799;50.844;5.304;2023-08-01T11:44:31;7.43;;;2.70;;
29938;SDS011;16799;50.844;5.304;2023-08-01T11:46:57;13.80;;;3.20;;
29938;SDS011;16799;50.844;5.304;2023-08-01T11:49:22;7.03;;;2.30;;
29938;SDS011;16799;50.844;5.304;2023-08-01T11:51:49;3.20;;;1.87;;
29938;SDS011;16799;50.844;5.304;2023-08-01T11:54:15;2.33;;;1.90;;
29938;SDS011;16799;50.844;5.304;2023-08-01T11:56:42;8.50;;;2.17;;
29938;SDS011;16799;50.844;5.304;2023-08-01T11:59:15;4.73;;;2.57;;
29938;SDS011;16799;50.844;5.304;2023-08-01T12:01:42;6.37;;;2.17;;
29938;SDS011;16799;50.844;5.304;2023-08-01T12:04:10;9.27;;;2.30;;
29938;SDS011;16799;50.844;5.304;2023-08-01T12:06:36;5.07;;;2.40;;
29938;SDS011;16799;50.844;5.304;2023-08-01T12:09:08;8.33;;;3.17;;
29938;SDS011;16799;50.844;5.304;2023-08-01T12:11:35;8.40;;;3.27;;
29938;SDS011;16799;50.844;5.304;2023-08-01T12:14:07;4.00;;;2.27;;
29938;SDS011;16799;50.844;5.304;2023-08-01T12:16:40;11.50;;;3.60;;
29938;SDS011;16799;50.844;5.304;2023-08-01T12:19:08;5.83;;;3.23;;
29938;SDS011;16799;50.844;5.304;2023-08-01T12:21:35;4.00;;;2.73;;
29938;SDS011;16799;50.844;5.304;2023-08-01T12:24:02;9.93;;;2.80;;
29938;SDS011;16799;50.844;5.304;2023-08-01T12:26:28;3.20;;;2.40;;
29938;SDS011;16799;50.844;5.304;2023-08-01T12:28:54;5.97;;;2.40;;
29938;SDS011;16799;50.844;5.304;2023-08-01T12:31:20;11.10;;;2.70;;
29938;SDS011;16799;50.844;5.304;2023-08-01T12:33:47;8.23;;;2.80;;
29938;SDS011;16799;50.844;5.304;2023-08-01T12:36:13;5.60;;;2.07;;
29938;SDS011;16799;50.844;5.304;2023-08-01T12:38:39;10.60;;;2.60;;
29938;SDS011;16799;50.844;5.304;2023-08-01T12:41:05;7.63;;;3.00;;
29938;SDS011;16799;50.844;5.304;2023-08-01T12:43:32;7.97;;;2.60;;
29938;SDS011;16799;50.844;5.304;2023-08-01T12:45:57;12.90;;;2.80;;
29938;SDS011;16799;50.844;5.304;2023-08-01T12:48:24;4.50;;;2.93;;
29938;SDS011;16799;50.844;5.304;2023-08-01T12:50:50;7.57;;;3.10;;
29938;SDS011;16799;50.844;5.304;2023-08-01T12:53:16;7.43;;;3.30;;
29938;SDS011;16799;50.844;5.304;2023-08-01T12:55:45;12.43;;;3.07;;
29938;SDS011;16799;50.844;5.304;2023-08-01T12:58:11;8.33;;;2.97;;
29938;SDS011;16799;50.844;5.304;2023-08-01T13:00:38;6.33;;;3.30;;
29938;SDS011;16799;50.844;5.304;2023-08-01T13:03:05;5.47;;;2.93;;
29938;SDS011;16799;50.844;5.304;2023-08-01T13:05:33;6.93;;;3.37;;
29938;SDS011;16799;50.844;5.304;2023-08-01T13:08:00;4.23;;;2.50;;
29938;SDS011;16799;50.844;5.304;2023-08-01T13:10:25;5.40;;;3.10;;
29938;SDS011;16799;50.844;5.304;2023-08-01T13:12:54;3.30;;;3.00;;
29938;SDS011;16799;50.844;5.304;2023-08-01T13:15:19;4.90;;;2.37;;
29938;SDS011;16799;50.844;5.304;2023-08-01T13:17:45;3.70;;;2.10;;
29938;SDS011;16799;50.844;5.304;2023-08-01T13:20:11;8.43;;;2.43;;
29938;SDS011;16799;50.844;5.304;2023-08-01T13:22:36;8.63;;;2.70;;
29938;SDS011;16799;50.844;5.304;2023-08-01T13:25:02;2.43;;;2.23;;
29938;SDS011;16799;50.844;5.304;2023-08-01T13:27:29;8.47;;;2.57;;
29938;SDS011;16799;50.844;5.304;2023-08-01T13:29:54;8.13;;;2.70;;
29938;SDS011;16799;50.844;5.304;2023-08-01T13:32:20;4.87;;;2.23;;
29938;SDS011;16799;50.844;5.304;2023-08-01T13:34:46;7.03;;;3.20;;
29938;SDS011;16799;50.844;5.304;2023-08-01T13:37:12;6.30;;;2.13;;
29938;SDS011;16799;50.844;5.304;2023-08-01T13:39:38;12.93;;;2.63;;
29938;SDS011;16799;50.844;5.304;2023-08-01T13:42:04;4.10;;;2.50;;
29938;SDS011;16799;50.844;5.304;2023-08-01T13:44:29;9.10;;;2.90;;
29938;SDS011;16799;50.844;5.304;2023-08-01T13:46:55;7.73;;;3.20;;
29938;SDS011;16799;50.844;5.304;2023-08-01T13:49:21;9.90;;;2.47;;
29938;SDS011;16799;50.844;5.304;2023-08-01T13:51:46;5.47;;;2.90;;
29938;SDS011;16799;50.844;5.304;2023-08-01T13:54:12;10.93;;;2.53;;
29938;SDS011;16799;50.844;5.304;2023-08-01T13:56:38;8.17;;;2.57;;
29938;SDS011;16799;50.844;5.304;2023-08-01T13:59:03;2.80;;;2.40;;
29938;SDS011;16799;50.844;5.304;2023-08-01T14:01:29;12.40;;;2.57;;
29938;SDS011;16799;50.844;5.304;2023-08-01T14:03:55;6.90;;;3.57;;
29938;SDS011;16799;50.844;5.304;2023-08-01T14:06:20;11.07;;;2.90;;
29938;SDS011;16799;50.844;5.304;2023-08-01T14:08:46;5.53;;;1.90;;
29938;SDS011;16799;50.844;5.304;2023-08-01T14:11:12;3.30;;;2.17;;
29938;SDS011;16799;50.844;5.304;2023-08-01T14:13:37;2.50;;;2.20;;
29938;SDS011;16799;50.844;5.304;2023-08-01T14:16:03;2.10;;;1.90;;
29938;SDS011;16799;50.844;5.304;2023-08-01T14:18:29;3.40;;;2.30;;
29938;SDS011;16799;50.844;5.304;2023-08-01T14:20:55;4.50;;;2.13;;
29938;SDS011;16799;50.844;5.304;2023-08-01T14:23:21;8.43;;;2.53;;
29938;SDS011;16799;50.844;5.304;2023-08-01T14:25:47;6.03;;;1.90;;
29938;SDS011;16799;50.844;5.304;2023-08-01T14:28:13;6.00;;;1.90;;
29938;SDS011;16799;50.844;5.304;2023-08-01T14:30:39;6.43;;;2.20;;
29938;SDS011;16799;50.844;5.304;2023-08-01T14:33:06;3.53;;;2.03;;
29938;SDS011;16799;50.844;5.304;2023-08-01T14:35:35;2.43;;;2.23;;
29938;SDS011;16799;50.844;5.304;2023-08-01T14:38:02;3.27;;;1.40;;
29938;SDS011;16799;50.844;5.304;2023-08-01T14:40:28;11.00;;;2.10;;
29938;SDS011;16799;50.844;5.304;2023-08-01T14:42:54;5.73;;;2.20;;